Terminal Aerodrome Forecast
Issued by NWS Memphis, TN

Home | Current Version | Previous Version | Text Only | Print | Product List | Glossary On
Versions: 1 2 3 4 5 6 7 8 9 10 11 12 13 14 15
890
FTUS44 KMEG 231130
TAFJBR
TAF
KJBR 231130Z 2312/2412 VRB03KT P6SM SCT250
     FM231900 10005KT P6SM VCTS SCT040CB BKN250
     FM240100 VRB03KT P6SM BKN250=

USA.gov is the U.S. government's official web portal to all federal, state and local government web resources and services.